Willis, Virginia
Current Conditions -  °F | °C
As of 10:55 PM on Sunday 23 Nov 2014 (Local Time) from KHLX Reporting Station
Light Rain Light Rain  
Wind Chill: 52°   Ceiling: 300
Heat Index: 52°   Visibility: 7mi
Dew Point: 52°   Wind: 14mph
Humidity: 99%   Direction: 170°S
Pressure: 29.69"   Gusts: 26mph
Location:  36.85°N, 80.48°W
Report Text: KHLX 240355Z AUTO 17012G23KT 140V200 7SM -RA OVC003 11/11 A2969 RMK AO2 P0002 T01100109
Loading
Personal Weather Stations






























Interactive Weather Map New forecast layout! Learn more

10-Day Weather Forecast

Advertisements
Track Severe Weather on mobile